METAR for South-East England East Anglia Midlands and Wales - 12 Dec 2017 - 2348 UTC - RocketRoute WX - rrwx.com
EGKB   EGBB 122320Z 18008KT 8000 -RA OVC010 03/03 Q1001 EGHH   EGVN 122250Z 20006KT 7000 -RA FEW006 OVC009 04/03 Q1003 GRN TEMPO 4000 -RADZ BKN006 YLO1 EGSC   EGFF 122320Z AUTO 26016KT 9999 BKN011 OVC020 09/08 Q1002 EGBE   EGTC   EGYD 122250Z AUTO 17012KT 9999 // SCT024/// BKN032/// 02/01 Q1001 EGNX 122320Z 20018KT 9000 RA SCT010 BKN032 03/02 Q1000 EGVA 122328Z AUTO 20011KT 9999 -RA OVC007 M A2961 RMK AO2 RAB28 OVC V BKN SLPNO ALSTG ESTMD $ EGLF   EGBJ   EGSD   EGNR   EGNJ 122320Z AUTO 19019KT 9999 OVC023/// 03/02 Q0999 EGGW 122320Z AUTO 19009KT 150V210 6000 -RA FEW004/// SCT012/// BKN035/// //////TCU 03/03 Q1004 EGLC 122320Z AUTO 18005KT 150V220 9999 -RA BKN032 07/04 Q1006 EGKK 122320Z 21006KT 9999 -RA BKN023 BKN029 07/05 Q1006 EGLL 122320Z AUTO 19009KT 170V240 9999 -RA SCT028 SCT033 BKN044TCU 06/04 Q1005 TEMPO 6000 -RA BKN012 EGSS 122320Z AUTO 17010KT 9999 -RA BKN025/// OVC030/// //////TCU 03/02 Q1005 EGMD 122320Z AUTO 21016KT 4200 RA FEW012/// SCT018/// BKN023/// 07/06 Q1008 RERA EGMH   EGYM 122250Z 18011KT 9999 -RA FEW025 OVC040 02/01 Q1004 BLU EGSH 122320Z AUTO 19011KT 9999 -RA FEW012/// SCT026/// 03/02 Q1004 EGOS 122250Z AUTO 17009KT 2600 -DZ FEW010/// BKN016/// 03/02 Q1001 EGKA   EGHI   EGMC 122250Z 19011KT 9999 -RA FEW020 BKN044 06/03 Q1006 EGOV 122250Z AUTO 28012KT 9999 SCT180/// 08/05 Q1000 EGXW 122333Z 20017KT 9999 BKN010 BKN028 04/02 Q1000 GRN EGUW 122250Z AUTO 19009KT 9999 -RA FEW032/// BKN050/// BKN090/// 02/00 Q1006 EGXT 122250Z AUTO 18012KT 9999 RA FEW028/// BKN049/// 02/02 Q1002

RocketRoute WX - rrwx.com weather for pilots